sensor_id;sensor_type;location;lat;lon;timestamp;pressure;altitude;pressure_sealevel;temperature;humidity
70921;BME280;58572;48.110;19.838;2022-10-22T00:01:15;97872.66;;;9.17;66.59
70921;BME280;58572;48.110;19.838;2022-10-22T00:03:42;97770.81;;;8.55;65.47
70921;BME280;58572;48.110;19.838;2022-10-22T00:06:10;97749.16;;;8.40;65.62
70921;BME280;58572;48.110;19.838;2022-10-22T00:08:38;97874.53;;;9.26;66.52
70921;BME280;58572;48.110;19.838;2022-10-22T00:11:10;97786.50;;;8.22;66.03
70921;BME280;58572;48.110;19.838;2022-10-22T00:13:37;97879.66;;;9.28;66.46
70921;BME280;58572;48.110;19.838;2022-10-22T00:16:04;97819.03;;;8.73;66.88
70921;BME280;58572;48.110;19.838;2022-10-22T00:18:32;97860.75;;;8.92;67.21
70921;BME280;58572;48.110;19.838;2022-10-22T00:20:59;97704.47;;;8.01;66.86
70921;BME280;58572;48.110;19.838;2022-10-22T00:23:26;97862.13;;;8.75;67.37
70921;BME280;58572;48.110;19.838;2022-10-22T00:25:54;97786.56;;;8.43;66.97
70921;BME280;58572;48.110;19.838;2022-10-22T00:28:22;97850.97;;;9.12;66.84
70921;BME280;58572;48.110;19.838;2022-10-22T00:30:54;97852.81;;;9.26;65.05
70921;BME280;58572;48.110;19.838;2022-10-22T00:33:21;97853.38;;;9.23;67.38
70921;BME280;58572;48.110;19.838;2022-10-22T00:35:48;97854.50;;;9.07;65.18
70921;BME280;58572;48.110;19.838;2022-10-22T00:38:16;97848.72;;;9.34;66.01
70921;BME280;58572;48.110;19.838;2022-10-22T00:40:43;97857.72;;;9.19;64.85
70921;BME280;58572;48.110;19.838;2022-10-22T00:43:13;97849.63;;;9.04;66.43
70921;BME280;58572;48.110;19.838;2022-10-22T00:45:42;97851.53;;;8.88;67.13
70921;BME280;58572;48.110;19.838;2022-10-22T00:48:09;97853.72;;;8.91;66.44
70921;BME280;58572;48.110;19.838;2022-10-22T00:50:40;97842.84;;;8.96;64.74
70921;BME280;58572;48.110;19.838;2022-10-22T00:53:09;97835.00;;;9.00;67.13
70921;BME280;58572;48.110;19.838;2022-10-22T00:55:41;97840.63;;;9.19;65.16
70921;BME280;58572;48.110;19.838;2022-10-22T00:58:11;97847.69;;;9.20;66.23
70921;BME280;58572;48.110;19.838;2022-10-22T01:00:39;97843.91;;;9.06;66.55
70921;BME280;58572;48.110;19.838;2022-10-22T01:03:07;97853.09;;;9.20;66.25
70921;BME280;58572;48.110;19.838;2022-10-22T01:05:39;97844.53;;;8.62;68.49
70921;BME280;58572;48.110;19.838;2022-10-22T01:08:12;97832.00;;;8.96;66.03
70921;BME280;58572;48.110;19.838;2022-10-22T01:10:50;97748.91;;;8.41;65.83
70921;BME280;58572;48.110;19.838;2022-10-22T01:13:32;97811.97;;;8.77;66.60
70921;BME280;58572;48.110;19.838;2022-10-22T01:16:09;97691.75;;;7.97;65.81
70921;BME280;58572;48.110;19.838;2022-10-22T01:18:47;97809.81;;;8.74;67.14
70921;BME280;58572;48.110;19.838;2022-10-22T01:21:23;97813.59;;;8.78;68.30
70921;BME280;58572;48.110;19.838;2022-10-22T01:24:23;97829.06;;;8.62;67.03
70921;BME280;58572;48.110;19.838;2022-10-22T01:27:01;97826.03;;;9.00;67.12
70921;BME280;58572;48.110;19.838;2022-10-22T01:29:37;97768.41;;;8.33;66.57
70921;BME280;58572;48.110;19.838;2022-10-22T01:32:07;97827.41;;;8.97;67.04
70921;BME280;58572;48.110;19.838;2022-10-22T01:34:37;97660.34;;;7.71;66.38
70921;BME280;58572;48.110;19.838;2022-10-22T01:37:06;97817.69;;;8.66;67.54
70921;BME280;58572;48.110;19.838;2022-10-22T01:39:35;97813.91;;;8.67;65.64
70921;BME280;58572;48.110;19.838;2022-10-22T01:42:04;97795.75;;;8.52;65.72
70921;BME280;58572;48.110;19.838;2022-10-22T01:44:33;97824.44;;;8.88;66.74
70921;BME280;58572;48.110;19.838;2022-10-22T01:47:14;97828.53;;;8.60;66.29
70921;BME280;58572;48.110;19.838;2022-10-22T01:49:56;97822.31;;;8.60;67.02
70921;BME280;58572;48.110;19.838;2022-10-22T01:52:37;97813.34;;;8.70;65.14
70921;BME280;58572;48.110;19.838;2022-10-22T01:55:16;97670.63;;;7.94;64.69
70921;BME280;58572;48.110;19.838;2022-10-22T01:57:52;97787.03;;;8.90;66.60
70921;BME280;58572;48.110;19.838;2022-10-22T02:00:25;97792.72;;;8.89;67.01
70921;BME280;58572;48.110;19.838;2022-10-22T02:02:58;97791.38;;;8.81;65.59
70921;BME280;58572;48.110;19.838;2022-10-22T02:05:29;97792.16;;;8.92;66.29
70921;BME280;58572;48.110;19.838;2022-10-22T02:08:00;97748.03;;;8.76;67.54
70921;BME280;58572;48.110;19.838;2022-10-22T02:10:29;97647.88;;;8.05;65.39
70921;BME280;58572;48.110;19.838;2022-10-22T02:12:58;97799.53;;;8.76;67.13
70921;BME280;58572;48.110;19.838;2022-10-22T02:15:28;97735.91;;;8.33;68.24
70921;BME280;58572;48.110;19.838;2022-10-22T02:18:00;97760.00;;;8.55;65.50
70921;BME280;58572;48.110;19.838;2022-10-22T02:20:30;97798.66;;;9.01;65.39
70921;BME280;58572;48.110;19.838;2022-10-22T02:22:59;97712.78;;;8.76;64.42
70921;BME280;58572;48.110;19.838;2022-10-22T02:25:28;97767.53;;;8.78;65.90
70921;BME280;58572;48.110;19.838;2022-10-22T02:28:01;97660.34;;;7.96;65.97
70921;BME280;58572;48.110;19.838;2022-10-22T02:30:30;97795.75;;;8.67;64.75
70921;BME280;58572;48.110;19.838;2022-10-22T02:33:02;97706.06;;;8.18;64.79
70921;BME280;58572;48.110;19.838;2022-10-22T02:35:32;97797.38;;;8.68;65.85
70921;BME280;58572;48.110;19.838;2022-10-22T02:38:00;97793.53;;;8.89;66.57
70921;BME280;58572;48.110;19.838;2022-10-22T02:40:29;97797.09;;;8.64;66.27
70921;BME280;58572;48.110;19.838;2022-10-22T02:42:56;97787.06;;;8.65;64.57
70921;BME280;58572;48.110;19.838;2022-10-22T02:45:23;97793.53;;;8.84;65.76
70921;BME280;58572;48.110;19.838;2022-10-22T02:47:51;97748.88;;;8.61;66.40
70921;BME280;58572;48.110;19.838;2022-10-22T02:50:19;97772.88;;;9.04;66.48
70921;BME280;58572;48.110;19.838;2022-10-22T02:52:46;97770.16;;;9.09;65.73
70921;BME280;58572;48.110;19.838;2022-10-22T02:55:13;97779.16;;;8.94;64.71
70921;BME280;58572;48.110;19.838;2022-10-22T02:57:40;97726.97;;;8.38;66.75
70921;BME280;58572;48.110;19.838;2022-10-22T03:00:08;97742.63;;;8.71;66.26
70921;BME280;58572;48.110;19.838;2022-10-22T03:02:36;97780.50;;;8.91;67.24
70921;BME280;58572;48.110;19.838;2022-10-22T03:05:03;97779.22;;;8.63;67.48
70921;BME280;58572;48.110;19.838;2022-10-22T03:07:32;97780.28;;;8.73;66.41
70921;BME280;58572;48.110;19.838;2022-10-22T03:09:59;97783.78;;;8.83;66.78
70921;BME280;58572;48.110;19.838;2022-10-22T03:12:26;97782.44;;;8.86;66.73
70921;BME280;58572;48.110;19.838;2022-10-22T03:14:53;97778.63;;;8.92;66.62
70921;BME280;58572;48.110;19.838;2022-10-22T03:17:20;97782.41;;;8.91;66.07
70921;BME280;58572;48.110;19.838;2022-10-22T03:19:47;97786.22;;;8.90;67.30
70921;BME280;58572;48.110;19.838;2022-10-22T03:22:17;97770.19;;;8.99;66.10
70921;BME280;58572;48.110;19.838;2022-10-22T03:24:52;97717.16;;;8.31;66.86
70921;BME280;58572;48.110;19.838;2022-10-22T03:27:21;97553.75;;;7.26;67.57
70921;BME280;58572;48.110;19.838;2022-10-22T03:29:49;97789.72;;;8.90;67.23
70921;BME280;58572;48.110;19.838;2022-10-22T03:32:17;97795.41;;;8.94;66.88
70921;BME280;58572;48.110;19.838;2022-10-22T03:34:44;97798.38;;;8.98;67.14
70921;BME280;58572;48.110;19.838;2022-10-22T03:37:12;97763.16;;;8.87;66.93
70921;BME280;58572;48.110;19.838;2022-10-22T03:39:39;97795.63;;;9.18;65.32
70921;BME280;58572;48.110;19.838;2022-10-22T03:42:08;97804.59;;;9.03;65.98
70921;BME280;58572;48.110;19.838;2022-10-22T03:44:38;97802.97;;;9.12;67.09
70921;BME280;58572;48.110;19.838;2022-10-22T03:47:06;97771.56;;;8.96;66.79
70921;BME280;58572;48.110;19.838;2022-10-22T03:49:33;97798.41;;;8.92;66.64
70921;BME280;58572;48.110;19.838;2022-10-22T03:52:04;97796.81;;;8.81;65.65
70921;BME280;58572;48.110;19.838;2022-10-22T03:54:31;97789.75;;;8.80;67.48
70921;BME280;58572;48.110;19.838;2022-10-22T03:56:59;97788.66;;;8.81;64.05
70921;BME280;58572;48.110;19.838;2022-10-22T03:59:27;97787.63;;;8.62;67.45
70921;BME280;58572;48.110;19.838;2022-10-22T04:01:54;97674.41;;;7.93;66.80
70921;BME280;58572;48.110;19.838;2022-10-22T04:04:21;97777.50;;;8.98;67.38
70921;BME280;58572;48.110;19.838;2022-10-22T04:06:48;97499.91;;;6.68;68.04
70921;BME280;58572;48.110;19.838;2022-10-22T04:09:15;97731.81;;;8.00;66.71
70921;BME280;58572;48.110;19.838;2022-10-22T04:11:42;97776.00;;;8.41;67.39
70921;BME280;58572;48.110;19.838;2022-10-22T04:14:10;97769.22;;;8.34;66.78
70921;BME280;58572;48.110;19.838;2022-10-22T04:16:40;97660.34;;;7.96;67.16
70921;BME280;58572;48.110;19.838;2022-10-22T04:19:07;97783.25;;;8.76;67.59
70921;BME280;58572;48.110;19.838;2022-10-22T04:21:35;97780.53;;;8.81;67.93
70921;BME280;58572;48.110;19.838;2022-10-22T04:24:02;97701.47;;;7.98;67.29
70921;BME280;58572;48.110;19.838;2022-10-22T04:26:29;97775.66;;;8.17;67.89
70921;BME280;58572;48.110;19.838;2022-10-22T04:28:56;97775.66;;;7.97;69.78
70921;BME280;58572;48.110;19.838;2022-10-22T04:31:24;97773.28;;;8.51;68.11
70921;BME280;58572;48.110;19.838;2022-10-22T04:33:53;97762.16;;;8.58;67.86
70921;BME280;58572;48.110;19.838;2022-10-22T04:36:21;97764.84;;;8.63;68.06
70921;BME280;58572;48.110;19.838;2022-10-22T04:38:51;97770.00;;;8.64;68.58
70921;BME280;58572;48.110;19.838;2022-10-22T04:41:19;97765.94;;;8.62;68.72
70921;BME280;58572;48.110;19.838;2022-10-22T04:43:47;97675.50;;;8.02;68.39
70921;BME280;58572;48.110;19.838;2022-10-22T04:46:15;97775.16;;;8.56;68.80
70921;BME280;58572;48.110;19.838;2022-10-22T04:48:44;97687.69;;;7.89;68.58
70921;BME280;58572;48.110;19.838;2022-10-22T04:51:15;97715.56;;;8.00;68.98
70921;BME280;58572;48.110;19.838;2022-10-22T04:53:42;97773.00;;;8.43;68.73
70921;BME280;58572;48.110;19.838;2022-10-22T04:56:11;97694.97;;;8.04;68.19
70921;BME280;58572;48.110;19.838;2022-10-22T04:58:42;97773.00;;;8.43;68.35
70921;BME280;58572;48.110;19.838;2022-10-22T05:01:10;97784.94;;;8.42;68.33
70921;BME280;58572;48.110;19.838;2022-10-22T05:03:37;97769.75;;;8.41;68.14
70921;BME280;58572;48.110;19.838;2022-10-22T05:06:05;97782.75;;;8.44;68.48
70921;BME280;58572;48.110;19.838;2022-10-22T05:08:34;97727.47;;;8.09;68.46
70921;BME280;58572;48.110;19.838;2022-10-22T05:11:09;97784.91;;;8.57;68.21
70921;BME280;58572;48.110;19.838;2022-10-22T05:13:37;97707.97;;;7.92;68.45
70921;BME280;58572;48.110;19.838;2022-10-22T05:16:05;97778.69;;;8.41;68.76
70921;BME280;58572;48.110;19.838;2022-10-22T05:18:34;97776.81;;;8.42;69.03
70921;BME280;58572;48.110;19.838;2022-10-22T05:21:02;97788.44;;;8.42;68.98
70921;BME280;58572;48.110;19.838;2022-10-22T05:23:29;97785.47;;;8.44;68.19
70921;BME280;58572;48.110;19.838;2022-10-22T05:26:00;97793.59;;;8.39;68.66
70921;BME280;58572;48.110;19.838;2022-10-22T05:28:28;97770.78;;;8.04;68.47
70921;BME280;58572;48.110;19.838;2022-10-22T05:30:56;97797.00;;;7.73;69.76
70921;BME280;58572;48.110;19.838;2022-10-22T05:33:23;97744.25;;;7.81;68.63
70921;BME280;58572;48.110;19.838;2022-10-22T05:35:51;97795.94;;;7.89;68.69
70921;BME280;58572;48.110;19.838;2022-10-22T05:38:18;97796.75;;;7.85;70.11
70921;BME280;58572;48.110;19.838;2022-10-22T05:40:45;97801.66;;;8.13;68.76
70921;BME280;58572;48.110;19.838;2022-10-22T05:43:14;97601.81;;;6.88;68.29
70921;BME280;58572;48.110;19.838;2022-10-22T05:45:41;97806.06;;;8.35;68.31
70921;BME280;58572;48.110;19.838;2022-10-22T05:48:08;97806.31;;;8.33;68.57
70921;BME280;58572;48.110;19.838;2022-10-22T05:50:36;97799.75;;;8.29;68.94
70921;BME280;58572;48.110;19.838;2022-10-22T05:53:04;97803.53;;;7.97;68.95
70921;BME280;58572;48.110;19.838;2022-10-22T05:55:34;97793.94;;;7.44;71.53
70921;BME280;58572;48.110;19.838;2022-10-22T05:58:04;97788.88;;;7.73;68.95
70921;BME280;58572;48.110;19.838;2022-10-22T06:00:32;97813.91;;;7.33;71.09
70921;BME280;58572;48.110;19.838;2022-10-22T06:03:00;97789.06;;;7.46;70.65
70921;BME280;58572;48.110;19.838;2022-10-22T06:05:27;97792.06;;;7.50;70.01
70921;BME280;58572;48.110;19.838;2022-10-22T06:07:54;97794.22;;;7.48;70.69
70921;BME280;58572;48.110;19.838;2022-10-22T06:10:23;97800.50;;;7.74;69.34
70921;BME280;58572;48.110;19.838;2022-10-22T06:12:50;97794.06;;;8.05;69.11
70921;BME280;58572;48.110;19.838;2022-10-22T06:15:18;97807.13;;;8.44;67.16
70921;BME280;58572;48.110;19.838;2022-10-22T06:17:47;97766.44;;;8.18;68.16
70921;BME280;58572;48.110;19.838;2022-10-22T06:20:14;97810.94;;;8.38;68.47
70921;BME280;58572;48.110;19.838;2022-10-22T06:22:41;97812.56;;;8.39;69.39
70921;BME280;58572;48.110;19.838;2022-10-22T06:25:08;97811.75;;;8.58;67.77
70921;BME280;58572;48.110;19.838;2022-10-22T06:27:38;97815.53;;;8.47;68.50
70921;BME280;58572;48.110;19.838;2022-10-22T06:30:06;97813.63;;;8.48;68.62
70921;BME280;58572;48.110;19.838;2022-10-22T06:32:33;97803.88;;;8.67;67.35
70921;BME280;58572;48.110;19.838;2022-10-22T06:35:02;97824.47;;;8.58;67.93
70921;BME280;58572;48.110;19.838;2022-10-22T06:37:42;97813.09;;;8.46;68.20
70921;BME280;58572;48.110;19.838;2022-10-22T06:40:13;97830.44;;;8.45;68.90
70921;BME280;58572;48.110;19.838;2022-10-22T06:42:43;97847.06;;;7.76;72.08
70921;BME280;58572;48.110;19.838;2022-10-22T06:45:10;97861.13;;;7.78;73.09
70921;BME280;58572;48.110;19.838;2022-10-22T06:47:37;97847.59;;;7.78;72.73
70921;BME280;58572;48.110;19.838;2022-10-22T06:50:06;97834.66;;;7.90;73.21
70921;BME280;58572;48.110;19.838;2022-10-22T06:52:34;97740.41;;;7.51;71.47
70921;BME280;58572;48.110;19.838;2022-10-22T06:55:01;97817.09;;;8.23;71.11
70921;BME280;58572;48.110;19.838;2022-10-22T06:57:28;97819.56;;;8.90;67.70
70921;BME280;58572;48.110;19.838;2022-10-22T06:59:55;97824.44;;;8.88;68.45
70921;BME280;58572;48.110;19.838;2022-10-22T07:02:22;97816.03;;;8.95;67.64
70921;BME280;58572;48.110;19.838;2022-10-22T07:04:49;97822.75;;;9.18;67.22
70921;BME280;58572;48.110;19.838;2022-10-22T07:07:18;97821.63;;;9.39;66.07
70921;BME280;58572;48.110;19.838;2022-10-22T07:09:45;97833.53;;;9.43;65.83
70921;BME280;58572;48.110;19.838;2022-10-22T07:12:13;97836.81;;;9.30;70.55
70921;BME280;58572;48.110;19.838;2022-10-22T07:14:41;97835.78;;;9.06;70.70
70921;BME280;58572;48.110;19.838;2022-10-22T07:17:08;97838.50;;;9.11;70.97
70921;BME280;58572;48.110;19.838;2022-10-22T07:19:35;97840.13;;;9.12;71.09
70921;BME280;58572;48.110;19.838;2022-10-22T07:22:02;97847.91;;;9.34;70.39
70921;BME280;58572;48.110;19.838;2022-10-22T07:24:31;97849.84;;;9.18;71.58
70921;BME280;58572;48.110;19.838;2022-10-22T07:26:58;97850.88;;;9.52;69.76
70921;BME280;58572;48.110;19.838;2022-10-22T07:29:25;97838.75;;;9.89;69.31
70921;BME280;58572;48.110;19.838;2022-10-22T07:31:52;97832.75;;;9.92;70.16
70921;BME280;58572;48.110;19.838;2022-10-22T07:34:20;97827.88;;;9.89;71.08
70921;BME280;58572;48.110;19.838;2022-10-22T07:36:47;97828.41;;;9.96;71.61
70921;BME280;58572;48.110;19.838;2022-10-22T07:39:13;97830.69;;;10.23;67.73
70921;BME280;58572;48.110;19.838;2022-10-22T07:41:42;97825.53;;;10.16;65.96
70921;BME280;58572;48.110;19.838;2022-10-22T07:44:09;97750.31;;;9.78;64.62
70921;BME280;58572;48.110;19.838;2022-10-22T07:46:36;97826.34;;;10.61;65.37
70921;BME280;58572;48.110;19.838;2022-10-22T07:49:03;97830.13;;;10.65;63.76
70921;BME280;58572;48.110;19.838;2022-10-22T07:51:30;97834.75;;;10.65;63.32
70921;BME280;58572;48.110;19.838;2022-10-22T07:53:57;97830.22;;;10.84;62.78
70921;BME280;58572;48.110;19.838;2022-10-22T07:56:24;97826.97;;;11.11;62.72
70921;BME280;58572;48.110;19.838;2022-10-22T07:58:53;97826.16;;;11.34;62.37
70921;BME280;58572;48.110;19.838;2022-10-22T08:01:20;97826.16;;;11.34;62.35
70921;BME280;58572;48.110;19.838;2022-10-22T08:03:47;97814.88;;;11.70;63.76
70921;BME280;58572;48.110;19.838;2022-10-22T08:06:14;97793.59;;;11.72;62.81
70921;BME280;58572;48.110;19.838;2022-10-22T08:08:41;97806.81;;;12.02;61.71
70921;BME280;58572;48.110;19.838;2022-10-22T08:11:10;97800.50;;;11.88;61.64
70921;BME280;58572;48.110;19.838;2022-10-22T08:13:37;97811.69;;;12.24;60.22
70921;BME280;58572;48.110;19.838;2022-10-22T08:16:06;97813.50;;;12.29;59.79
70921;BME280;58572;48.110;19.838;2022-10-22T08:18:33;97815.13;;;12.49;59.41
70921;BME280;58572;48.110;19.838;2022-10-22T08:21:00;97808.19;;;12.56;59.69
70921;BME280;58572;48.110;19.838;2022-10-22T08:23:27;97784.84;;;12.50;59.65
70921;BME280;58572;48.110;19.838;2022-10-22T08:25:55;97792.91;;;13.34;58.62
70921;BME280;58572;48.110;19.838;2022-10-22T08:28:22;97797.84;;;13.32;58.44
70921;BME280;58572;48.110;19.838;2022-10-22T08:30:50;97799.22;;;13.98;56.54
70921;BME280;58572;48.110;19.838;2022-10-22T08:33:18;97770.50;;;12.91;58.19
70921;BME280;58572;48.110;19.838;2022-10-22T08:35:47;97801.47;;;13.82;57.31
70921;BME280;58572;48.110;19.838;2022-10-22T08:38:14;97797.16;;;14.76;55.15
70921;BME280;58572;48.110;19.838;2022-10-22T08:40:41;97791.72;;;15.15;53.42
70921;BME280;58572;48.110;19.838;2022-10-22T08:43:28;97793.41;;;14.49;52.65
70921;BME280;58572;48.110;19.838;2022-10-22T08:46:12;97798.56;;;14.15;54.63
70921;BME280;58572;48.110;19.838;2022-10-22T08:48:46;97810.75;;;13.95;53.35
70921;BME280;58572;48.110;19.838;2022-10-22T08:51:16;97809.94;;;14.89;53.24
70921;BME280;58572;48.110;19.838;2022-10-22T08:53:52;97815.47;;;14.53;53.21
70921;BME280;58572;48.110;19.838;2022-10-22T08:56:25;97814.22;;;14.23;54.71
70921;BME280;58572;48.110;19.838;2022-10-22T08:58:55;97814.34;;;14.18;55.11
70921;BME280;58572;48.110;19.838;2022-10-22T09:01:32;97821.91;;;13.43;57.03
70921;BME280;58572;48.110;19.838;2022-10-22T09:04:05;97817.47;;;13.89;54.76
70921;BME280;58572;48.110;19.838;2022-10-22T09:06:37;97819.38;;;13.88;55.17
70921;BME280;58572;48.110;19.838;2022-10-22T09:09:10;97827.81;;;13.78;55.68
70921;BME280;58572;48.110;19.838;2022-10-22T09:11:40;97758.91;;;13.26;57.02
70921;BME280;58572;48.110;19.838;2022-10-22T09:14:11;97818.69;;;13.69;57.34
70921;BME280;58572;48.110;19.838;2022-10-22T09:16:57;97745.06;;;13.64;56.79
70921;BME280;58572;48.110;19.838;2022-10-22T09:19:32;97741.63;;;13.31;55.06
70921;BME280;58572;48.110;19.838;2022-10-22T09:22:09;97823.50;;;13.99;56.23
70921;BME280;58572;48.110;19.838;2022-10-22T09:24:43;97820.31;;;13.70;56.14
70921;BME280;58572;48.110;19.838;2022-10-22T09:27:12;97759.47;;;12.96;55.16
70921;BME280;58572;48.110;19.838;2022-10-22T09:29:40;97833.44;;;13.40;56.47
70921;BME280;58572;48.110;19.838;2022-10-22T09:32:08;97786.94;;;13.18;55.52
70921;BME280;58572;48.110;19.838;2022-10-22T09:34:36;97838.50;;;13.33;56.85
70921;BME280;58572;48.110;19.838;2022-10-22T09:37:05;97838.31;;;13.43;56.34
70921;BME280;58572;48.110;19.838;2022-10-22T09:39:36;97845.34;;;13.17;56.29
70921;BME280;58572;48.110;19.838;2022-10-22T09:42:04;97782.81;;;12.88;55.37
70921;BME280;58572;48.110;19.838;2022-10-22T09:44:32;97836.72;;;13.56;55.50
70921;BME280;58572;48.110;19.838;2022-10-22T09:47:03;97709.16;;;12.42;56.34
70921;BME280;58572;48.110;19.838;2022-10-22T09:49:33;97838.69;;;13.23;57.18
70921;BME280;58572;48.110;19.838;2022-10-22T09:52:02;97835.47;;;13.49;56.91
70921;BME280;58572;48.110;19.838;2022-10-22T09:54:38;97838.22;;;13.76;56.97
70921;BME280;58572;48.110;19.838;2022-10-22T09:57:13;97847.25;;;13.63;56.61
70921;BME280;58572;48.110;19.838;2022-10-22T09:59:42;97836.38;;;13.44;57.58
70921;BME280;58572;48.110;19.838;2022-10-22T10:02:12;97800.50;;;12.91;57.67
70921;BME280;58572;48.110;19.838;2022-10-22T10:04:44;97833.56;;;13.03;57.54
70921;BME280;58572;48.110;19.838;2022-10-22T10:07:16;97842.75;;;13.26;56.53
70921;BME280;58572;48.110;19.838;2022-10-22T10:09:44;97835.16;;;13.50;56.99
70921;BME280;58572;48.110;19.838;2022-10-22T10:12:20;97836.50;;;13.66;56.24
70921;BME280;58572;48.110;19.838;2022-10-22T10:14:55;97841.38;;;13.56;57.27
70921;BME280;58572;48.110;19.838;2022-10-22T10:17:32;97834.50;;;13.58;56.65
70921;BME280;58572;48.110;19.838;2022-10-22T10:20:13;97829.63;;;13.69;57.80
70921;BME280;58572;48.110;19.838;2022-10-22T10:22:52;97811.91;;;13.80;56.90
70921;BME280;58572;48.110;19.838;2022-10-22T10:25:43;97802.69;;;13.76;57.80
70921;BME280;58572;48.110;19.838;2022-10-22T10:28:20;97774.59;;;13.34;57.73
70921;BME280;58572;48.110;19.838;2022-10-22T10:30:55;97813.72;;;13.43;57.67
70921;BME280;58572;48.110;19.838;2022-10-22T10:33:31;97791.13;;;13.10;57.67
70921;BME280;58572;48.110;19.838;2022-10-22T10:36:07;97825.97;;;13.46;58.75
70921;BME280;58572;48.110;19.838;2022-10-22T10:38:47;97830.84;;;13.63;58.73
70921;BME280;58572;48.110;19.838;2022-10-22T10:41:24;97822.31;;;13.51;59.28
70921;BME280;58572;48.110;19.838;2022-10-22T10:44:03;97820.13;;;13.53;59.38
70921;BME280;58572;48.110;19.838;2022-10-22T10:46:43;97815.06;;;13.60;58.83
70921;BME280;58572;48.110;19.838;2022-10-22T10:49:17;97804.31;;;13.77;58.57
70921;BME280;58572;48.110;19.838;2022-10-22T10:51:50;97818.50;;;13.65;58.31
70921;BME280;58572;48.110;19.838;2022-10-22T10:54:33;97804.31;;;13.77;57.80
70921;BME280;58572;48.110;19.838;2022-10-22T10:57:12;97805.56;;;13.57;57.84
70921;BME280;58572;48.110;19.838;2022-10-22T10:59:53;97806.34;;;13.30;58.27
70921;BME280;58572;48.110;19.838;2022-10-22T11:05:34;97812.22;;;13.24;57.62
70921;BME280;58572;48.110;19.838;2022-10-22T11:08:08;97805.34;;;13.26;58.83
70921;BME280;58572;48.110;19.838;2022-10-22T11:10:39;97803.22;;;13.23;61.16
70921;BME280;58572;48.110;19.838;2022-10-22T11:13:16;97812.81;;;13.48;59.53
70921;BME280;58572;48.110;19.838;2022-10-22T11:15:47;97811.19;;;13.33;59.57
70921;BME280;58572;48.110;19.838;2022-10-22T11:18:21;97811.81;;;13.30;58.91
70921;BME280;58572;48.110;19.838;2022-10-22T11:20:56;97800.88;;;13.30;59.28
70921;BME280;58572;48.110;19.838;2022-10-22T11:23:32;97809.38;;;13.29;59.16
70921;BME280;58572;48.110;19.838;2022-10-22T11:26:05;97818.97;;;13.26;58.68
70921;BME280;58572;48.110;19.838;2022-10-22T11:28:42;97817.13;;;13.08;58.71
70921;BME280;58572;48.110;19.838;2022-10-22T11:31:13;97792.53;;;12.94;58.43
70921;BME280;58572;48.110;19.838;2022-10-22T11:33:46;97837.50;;;13.29;59.77
70921;BME280;58572;48.110;19.838;2022-10-22T11:36:17;97815.03;;;13.32;59.19
70921;BME280;58572;48.110;19.838;2022-10-22T11:38:46;97773.44;;;13.08;59.31
70921;BME280;58572;48.110;19.838;2022-10-22T11:41:18;97789.19;;;12.84;59.40
70921;BME280;58572;48.110;19.838;2022-10-22T11:43:56;97803.84;;;12.88;60.47
70921;BME280;58572;48.110;19.838;2022-10-22T11:46:38;97756.19;;;12.34;60.69
70921;BME280;58572;48.110;19.838;2022-10-22T11:49:18;97803.41;;;12.81;61.66
70921;BME280;58572;48.110;19.838;2022-10-22T11:51:47;97799.50;;;12.87;64.70
70921;BME280;58572;48.110;19.838;2022-10-22T11:54:30;97756.78;;;12.50;62.15
70921;BME280;58572;48.110;19.838;2022-10-22T11:57:17;97816.81;;;13.09;59.62
70921;BME280;58572;48.110;19.838;2022-10-22T11:59:48;97808.16;;;13.21;60.49
70921;BME280;58572;48.110;19.838;2022-10-22T12:02:28;97813.22;;;13.28;59.90
70921;BME280;58572;48.110;19.838;2022-10-22T12:07:58;97824.31;;;12.71;61.46
70921;BME280;58572;48.110;19.838;2022-10-22T12:10:33;97802.84;;;12.97;61.72
70921;BME280;58572;48.110;19.838;2022-10-22T12:13:04;97809.56;;;13.19;61.01
70921;BME280;58572;48.110;19.838;2022-10-22T12:15:45;97819.06;;;13.21;60.80
70921;BME280;58572;48.110;19.838;2022-10-22T12:18:14;97787.72;;;13.19;60.71
70921;BME280;58572;48.110;19.838;2022-10-22T12:20:42;97787.59;;;12.96;61.11
70921;BME280;58572;48.110;19.838;2022-10-22T12:23:10;97784.75;;;13.01;61.90
70921;BME280;58572;48.110;19.838;2022-10-22T12:25:39;97740.88;;;12.84;60.74
70921;BME280;58572;48.110;19.838;2022-10-22T12:28:11;97792.75;;;12.98;63.39
70921;BME280;58572;48.110;19.838;2022-10-22T12:30:38;97717.31;;;12.61;61.64
70921;BME280;58572;48.110;19.838;2022-10-22T12:33:06;97804.88;;;13.05;61.62
70921;BME280;58572;48.110;19.838;2022-10-22T12:35:42;97802.66;;;13.07;61.77
70921;BME280;58572;48.110;19.838;2022-10-22T12:38:13;97779.16;;;12.79;62.87
70921;BME280;58572;48.110;19.838;2022-10-22T12:40:40;97786.97;;;12.99;62.31
70921;BME280;58572;48.110;19.838;2022-10-22T12:43:12;97782.66;;;13.12;61.30
70921;BME280;58572;48.110;19.838;2022-10-22T12:45:41;97719.13;;;12.65;63.90
70921;BME280;58572;48.110;19.838;2022-10-22T12:48:15;97777.47;;;12.51;65.77
70921;BME280;58572;48.110;19.838;2022-10-22T12:50:44;97779.22;;;12.41;65.52
70921;BME280;58572;48.110;19.838;2022-10-22T12:53:14;97771.56;;;12.62;63.41
70921;BME280;58572;48.110;19.838;2022-10-22T12:55:45;97769.28;;;12.97;62.66
70921;BME280;58572;48.110;19.838;2022-10-22T12:58:21;97762.03;;;13.06;62.28
70921;BME280;58572;48.110;19.838;2022-10-22T13:00:53;97764.66;;;13.11;62.41
70921;BME280;58572;48.110;19.838;2022-10-22T13:03:28;97761.91;;;13.11;63.19
70921;BME280;58572;48.110;19.838;2022-10-22T13:05:56;97767.88;;;13.13;63.58
70921;BME280;58572;48.110;19.838;2022-10-22T13:08:26;97764.28;;;13.31;61.00
70921;BME280;58572;48.110;19.838;2022-10-22T13:10:54;97764.38;;;13.26;61.86
70921;BME280;58572;48.110;19.838;2022-10-22T13:13:31;97766.78;;;13.14;62.63
70921;BME280;58572;48.110;19.838;2022-10-22T13:16:17;97764.94;;;13.09;61.97
70921;BME280;58572;48.110;19.838;2022-10-22T13:18:46;97757.78;;;13.00;63.78